Romney, WV (26757)

12:21 PM EDT on August 27, 2016 (GMT -0400)
Romney | | Change Station

Elev 846 ft 39.34 °N, 78.75 °W | Updated 3 seconds ago

Clear
Clear
-52.0 °F
Feels Like -52 °F
N
0.0
Wind Variable Wind from South
Gusts 0.0 mph

Today
High -- | Low -- °F
--% Chance of Precip.
Yesterday
High -- | Low -- °F
Precip. -- in
Pressure 30.23 in
Visibility 10.0 miles
Clouds Clear
Windchill -52 °F
Dew Point -40 °F
Humidity 28%
Rainfall in
Snow Depth Not available.
6:39 AM 7:52 PM
Waning Crescent, 23% visible
METAR KCBE 271611Z AUTO 00000KT 10SM CLR 30/18 A3023 RMK AO1
Pressure 30.23 in
Visibility 10.0 miles
Clouds Clear
Windchill -52 °F
Dew Point -40 °F
Humidity 28%
Rainfall in
Snow Depth Not available.
6:39 AM 7:52 PM
Waning Crescent, 23% visible
METAR KCBE 271611Z AUTO 00000KT 10SM CLR 30/18 A3023 RMK AO1

10-Day Weather Forecast

Almanac

Astronomy

Aug. 27, 2016 Rise Set
Actual Time
Civil Twilight
Nautical Twilight
Astronomical Twilight
Moon
Length of Visible Light
Length of Day
Tomorrow will be .
, % of the Moon is Illuminated

Today's Extremes

State Highs State Lows

Community

WunderPhotos

Upload Photos

1,935,375 photos uploaded!

WunderBlog® & News

Nearby

Air Quality

  Air Quality AQ Index Pollutant
Not available.

Snow Depth

Station Depth Elevation

Earthquake Activity

City Distance Mag. Time & Date
Minimum magnitude displayed is 2.5.

Coastal Water Temperatures

Place Temperature

Stations

Nearby Weather Stations

Station Location Temp. Windchill Dew Point Humidity Wind Precip. Elev Updated Type
                   

Watches & Warnings

There are currently no watches in effect.